sensor_id;sensor_type;location;lat;lon;timestamp;pressure;altitude;pressure_sealevel;temperature;humidity
25130;BME280;13308;50.860;13.664;2023-05-14T04:23:59;96974.56;;;9.11;100.00
25130;BME280;13308;50.860;13.664;2023-05-14T04:26:25;96979.97;;;9.25;100.00
25130;BME280;13308;50.860;13.664;2023-05-14T04:28:50;96975.94;;;9.36;100.00
25130;BME280;13308;50.860;13.664;2023-05-14T04:31:16;96976.63;;;9.47;100.00
25130;BME280;13308;50.860;13.664;2023-05-14T04:33:42;96976.41;;;9.68;100.00
25130;BME280;13308;50.860;13.664;2023-05-14T04:36:07;96971.59;;;9.79;100.00
25130;BME280;13308;50.860;13.664;2023-05-14T04:38:33;96980.09;;;9.95;100.00
25130;BME280;13308;50.860;13.664;2023-05-14T04:40:58;96966.53;;;10.15;100.00
25130;BME280;13308;50.860;13.664;2023-05-14T04:43:23;96970.06;;;10.45;100.00
25130;BME280;13308;50.860;13.664;2023-05-14T04:45:49;96970.75;;;10.53;100.00
25130;BME280;13308;50.860;13.664;2023-05-14T04:48:15;96967.38;;;10.68;100.00
25130;BME280;13308;50.860;13.664;2023-05-14T04:50:41;96966.66;;;10.64;100.00
25130;BME280;13308;50.860;13.664;2023-05-14T04:53:06;96969.47;;;10.87;100.00
25130;BME280;13308;50.860;13.664;2023-05-14T04:55:31;96956.66;;;11.00;100.00
25130;BME280;13308;50.860;13.664;2023-05-14T04:57:57;96957.06;;;11.25;100.00
25130;BME280;13308;50.860;13.664;2023-05-14T05:00:22;96954.19;;;11.32;100.00
25130;BME280;13308;50.860;13.664;2023-05-14T05:02:48;96957.44;;;11.50;100.00
25130;BME280;13308;50.860;13.664;2023-05-14T05:05:13;96969.47;;;11.63;100.00
25130;BME280;13308;50.860;13.664;2023-05-14T05:07:38;96960.84;;;11.81;100.00
25130;BME280;13308;50.860;13.664;2023-05-14T05:10:04;96960.06;;;11.80;100.00
25130;BME280;13308;50.860;13.664;2023-05-14T05:12:29;96955.97;;;11.88;100.00
25130;BME280;13308;50.860;13.664;2023-05-14T05:14:55;96960.72;;;11.88;100.00
25130;BME280;13308;50.860;13.664;2023-05-14T05:17:21;96960.00;;;11.84;100.00
25130;BME280;13308;50.860;13.664;2023-05-14T05:19:46;96967.75;;;11.92;100.00
25130;BME280;13308;50.860;13.664;2023-05-14T05:22:12;96964.06;;;11.99;100.00
25130;BME280;13308;50.860;13.664;2023-05-14T05:24:37;96954.78;;;12.09;100.00
25130;BME280;13308;50.860;13.664;2023-05-14T05:27:03;96960.25;;;12.12;100.00
25130;BME280;13308;50.860;13.664;2023-05-14T05:29:29;96958.19;;;12.16;100.00
25130;BME280;13308;50.860;13.664;2023-05-14T05:31:54;96956.00;;;12.27;100.00
25130;BME280;13308;50.860;13.664;2023-05-14T05:34:20;96958.13;;;12.39;100.00
25130;BME280;13308;50.860;13.664;2023-05-14T05:36:45;96950.88;;;12.45;100.00
25130;BME280;13308;50.860;13.664;2023-05-14T05:39:11;96946.91;;;12.46;100.00
25130;BME280;13308;50.860;13.664;2023-05-14T05:41:36;96951.72;;;12.62;100.00
25130;BME280;13308;50.860;13.664;2023-05-14T05:44:01;96942.41;;;12.72;100.00
25130;BME280;13308;50.860;13.664;2023-05-14T05:46:26;96945.44;;;12.77;100.00
25130;BME280;13308;50.860;13.664;2023-05-14T05:48:52;96952.09;;;12.99;100.00
25130;BME280;13308;50.860;13.664;2023-05-14T05:51:17;96942.00;;;13.25;100.00
25130;BME280;13308;50.860;13.664;2023-05-14T05:53:42;96949.50;;;13.40;100.00
25130;BME280;13308;50.860;13.664;2023-05-14T05:56:08;96956.06;;;13.62;100.00
25130;BME280;13308;50.860;13.664;2023-05-14T05:58:33;96946.72;;;13.72;100.00
25130;BME280;13308;50.860;13.664;2023-05-14T06:00:58;96950.94;;;13.77;100.00
25130;BME280;13308;50.860;13.664;2023-05-14T06:03:24;96943.28;;;13.97;98.38
25130;BME280;13308;50.860;13.664;2023-05-14T06:05:49;96946.78;;;14.13;97.68
25130;BME280;13308;50.860;13.664;2023-05-14T06:08:16;96942.88;;;14.39;96.13
25130;BME280;13308;50.860;13.664;2023-05-14T06:10:42;96947.44;;;14.33;93.71
25130;BME280;13308;50.860;13.664;2023-05-14T06:13:07;96944.84;;;14.67;90.00
25130;BME280;13308;50.860;13.664;2023-05-14T06:15:32;96940.31;;;14.73;93.49
25130;BME280;13308;50.860;13.664;2023-05-14T06:17:58;96949.53;;;14.83;89.10
25130;BME280;13308;50.860;13.664;2023-05-14T06:20:23;96950.31;;;15.58;79.79
25130;BME280;13308;50.860;13.664;2023-05-14T06:22:48;96953.00;;;15.49;80.87
25130;BME280;13308;50.860;13.664;2023-05-14T06:25:14;96945.84;;;15.73;81.43
25130;BME280;13308;50.860;13.664;2023-05-14T06:27:39;96961.59;;;16.87;71.97
25130;BME280;13308;50.860;13.664;2023-05-14T06:30:05;96963.59;;;17.17;70.44
25130;BME280;13308;50.860;13.664;2023-05-14T06:32:31;96958.63;;;17.43;65.43
25130;BME280;13308;50.860;13.664;2023-05-14T06:34:56;96958.88;;;17.75;66.07
25130;BME280;13308;50.860;13.664;2023-05-14T06:37:21;96958.94;;;18.65;62.40
25130;BME280;13308;50.860;13.664;2023-05-14T06:39:47;96964.91;;;18.99;61.05
25130;BME280;13308;50.860;13.664;2023-05-14T06:42:17;96961.84;;;19.71;57.64
25130;BME280;13308;50.860;13.664;2023-05-14T06:44:43;96967.84;;;20.11;57.88
25130;BME280;13308;50.860;13.664;2023-05-14T06:47:08;96964.25;;;20.11;57.10
25130;BME280;13308;50.860;13.664;2023-05-14T06:49:34;96957.59;;;21.13;55.77
25130;BME280;13308;50.860;13.664;2023-05-14T06:52:00;96966.91;;;21.54;52.09
25130;BME280;13308;50.860;13.664;2023-05-14T06:54:26;96952.91;;;20.81;55.60
25130;BME280;13308;50.860;13.664;2023-05-14T06:56:51;96955.97;;;20.54;55.38
25130;BME280;13308;50.860;13.664;2023-05-14T06:59:16;96960.34;;;21.57;51.70
25130;BME280;13308;50.860;13.664;2023-05-14T07:01:42;96970.94;;;21.33;51.39
25130;BME280;13308;50.860;13.664;2023-05-14T07:04:07;96965.91;;;21.86;48.66
25130;BME280;13308;50.860;13.664;2023-05-14T07:06:32;96964.94;;;21.11;50.43
25130;BME280;13308;50.860;13.664;2023-05-14T07:08:58;96961.84;;;21.09;53.38
25130;BME280;13308;50.860;13.664;2023-05-14T07:11:23;96966.06;;;21.97;50.15
25130;BME280;13308;50.860;13.664;2023-05-14T07:13:48;96963.41;;;22.48;49.42
25130;BME280;13308;50.860;13.664;2023-05-14T07:16:14;96970.56;;;22.49;50.45
25130;BME280;13308;50.860;13.664;2023-05-14T07:18:39;96965.66;;;22.64;48.14
25130;BME280;13308;50.860;13.664;2023-05-14T07:21:05;96975.59;;;23.10;49.07
25130;BME280;13308;50.860;13.664;2023-05-14T07:23:33;96960.81;;;22.90;48.12
25130;BME280;13308;50.860;13.664;2023-05-14T07:26:05;96963.66;;;22.70;52.00
25130;BME280;13308;50.860;13.664;2023-05-14T07:28:31;96961.34;;;22.68;49.15
25130;BME280;13308;50.860;13.664;2023-05-14T07:30:56;96964.59;;;23.69;46.27
25130;BME280;13308;50.860;13.664;2023-05-14T07:33:22;96961.16;;;23.54;46.98
25130;BME280;13308;50.860;13.664;2023-05-14T07:35:47;96957.16;;;23.09;49.23
25130;BME280;13308;50.860;13.664;2023-05-14T07:38:13;96964.91;;;24.13;45.59
25130;BME280;13308;50.860;13.664;2023-05-14T07:40:39;96969.47;;;23.74;48.61
25130;BME280;13308;50.860;13.664;2023-05-14T07:43:04;96961.44;;;24.40;47.94
25130;BME280;13308;50.860;13.664;2023-05-14T07:45:30;96966.09;;;25.56;43.62
25130;BME280;13308;50.860;13.664;2023-05-14T07:47:55;96970.41;;;25.85;43.08
25130;BME280;13308;50.860;13.664;2023-05-14T07:50:21;96970.44;;;25.41;42.56
25130;BME280;13308;50.860;13.664;2023-05-14T07:52:47;96949.53;;;24.14;44.44
25130;BME280;13308;50.860;13.664;2023-05-14T07:55:12;96963.47;;;23.92;44.79
25130;BME280;13308;50.860;13.664;2023-05-14T07:57:37;96964.22;;;25.04;44.77
25130;BME280;13308;50.860;13.664;2023-05-14T08:00:04;96966.75;;;24.91;44.09
25130;BME280;13308;50.860;13.664;2023-05-14T08:02:37;96975.84;;;25.39;45.16
25130;BME280;13308;50.860;13.664;2023-05-14T08:05:03;96970.00;;;24.62;44.58
25130;BME280;13308;50.860;13.664;2023-05-14T08:07:29;96953.38;;;24.16;43.88
25130;BME280;13308;50.860;13.664;2023-05-14T08:09:54;96953.25;;;22.76;46.14
25130;BME280;13308;50.860;13.664;2023-05-14T08:12:19;96957.84;;;22.33;47.79
25130;BME280;13308;50.860;13.664;2023-05-14T08:14:45;96954.31;;;22.78;47.68
25130;BME280;13308;50.860;13.664;2023-05-14T08:17:10;96954.44;;;22.44;47.50
25130;BME280;13308;50.860;13.664;2023-05-14T08:19:36;96943.81;;;22.79;47.68
25130;BME280;13308;50.860;13.664;2023-05-14T08:22:01;96932.13;;;22.60;49.41
25130;BME280;13308;50.860;13.664;2023-05-14T08:24:26;96937.47;;;22.38;48.46
25130;BME280;13308;50.860;13.664;2023-05-14T08:26:52;96949.06;;;22.06;50.04
25130;BME280;13308;50.860;13.664;2023-05-14T08:29:17;96934.75;;;22.69;48.53
25130;BME280;13308;50.860;13.664;2023-05-14T08:31:42;96944.22;;;21.08;49.66
25130;BME280;13308;50.860;13.664;2023-05-14T08:34:08;96926.66;;;21.57;50.92
25130;BME280;13308;50.860;13.664;2023-05-14T08:36:33;96935.31;;;20.81;50.72
25130;BME280;13308;50.860;13.664;2023-05-14T08:38:58;96929.72;;;20.05;50.59
25130;BME280;13308;50.860;13.664;2023-05-14T08:41:24;96924.19;;;20.19;51.28
25130;BME280;13308;50.860;13.664;2023-05-14T08:44:11;96921.78;;;20.50;53.79
25130;BME280;13308;50.860;13.664;2023-05-14T08:46:37;96927.72;;;20.96;51.79
25130;BME280;13308;50.860;13.664;2023-05-14T08:49:14;96913.97;;;20.98;54.25
25130;BME280;13308;50.860;13.664;2023-05-14T08:51:45;96923.63;;;21.11;48.29
25130;BME280;13308;50.860;13.664;2023-05-14T08:54:15;96913.41;;;20.27;50.99
25130;BME280;13308;50.860;13.664;2023-05-14T08:56:43;96916.44;;;20.38;49.67
25130;BME280;13308;50.860;13.664;2023-05-14T08:59:08;96907.00;;;21.08;51.08
25130;BME280;13308;50.860;13.664;2023-05-14T09:01:36;96917.16;;;21.20;50.48
25130;BME280;13308;50.860;13.664;2023-05-14T09:04:03;96920.34;;;21.13;51.05
25130;BME280;13308;50.860;13.664;2023-05-14T09:06:35;96915.00;;;21.64;49.52
25130;BME280;13308;50.860;13.664;2023-05-14T09:09:04;96925.47;;;21.98;49.59
25130;BME280;13308;50.860;13.664;2023-05-14T09:11:30;96915.94;;;21.41;49.82
25130;BME280;13308;50.860;13.664;2023-05-14T09:13:56;96906.31;;;21.62;52.76
25130;BME280;13308;50.860;13.664;2023-05-14T09:16:21;96909.66;;;21.66;49.54
25130;BME280;13308;50.860;13.664;2023-05-14T09:18:47;96913.41;;;21.57;50.74
25130;BME280;13308;50.860;13.664;2023-05-14T09:21:13;96907.81;;;21.43;50.70
25130;BME280;13308;50.860;13.664;2023-05-14T09:23:43;96903.69;;;21.73;49.39
25130;BME280;13308;50.860;13.664;2023-05-14T09:26:09;96900.97;;;21.64;52.74
25130;BME280;13308;50.860;13.664;2023-05-14T09:28:34;96907.53;;;22.15;46.83
25130;BME280;13308;50.860;13.664;2023-05-14T09:31:03;96897.00;;;21.70;49.14
25130;BME280;13308;50.860;13.664;2023-05-14T09:33:28;96898.25;;;21.35;49.86
25130;BME280;13308;50.860;13.664;2023-05-14T09:35:57;96894.03;;;21.25;48.79
25130;BME280;13308;50.860;13.664;2023-05-14T09:38:27;96894.78;;;20.38;50.74
25130;BME280;13308;50.860;13.664;2023-05-14T09:40:53;96890.75;;;20.54;51.87
25130;BME280;13308;50.860;13.664;2023-05-14T09:43:18;96889.50;;;21.13;48.11
25130;BME280;13308;50.860;13.664;2023-05-14T09:45:43;96880.66;;;21.69;52.35
25130;BME280;13308;50.860;13.664;2023-05-14T09:48:09;96880.38;;;21.03;48.05
25130;BME280;13308;50.860;13.664;2023-05-14T09:50:41;96868.81;;;20.52;48.38
25130;BME280;13308;50.860;13.664;2023-05-14T09:53:07;96875.44;;;19.88;49.41
25130;BME280;13308;50.860;13.664;2023-05-14T09:55:32;96869.84;;;19.88;51.25
25130;BME280;13308;50.860;13.664;2023-05-14T09:57:57;96865.13;;;19.94;50.85
25130;BME280;13308;50.860;13.664;2023-05-14T10:00:23;96864.00;;;19.30;52.63
25130;BME280;13308;50.860;13.664;2023-05-14T10:02:48;96866.50;;;19.28;53.29
25130;BME280;13308;50.860;13.664;2023-05-14T10:05:15;96865.50;;;19.40;54.11
25130;BME280;13308;50.860;13.664;2023-05-14T10:07:46;96865.91;;;19.71;52.01
25130;BME280;13308;50.860;13.664;2023-05-14T10:10:17;96858.28;;;19.48;51.34
25130;BME280;13308;50.860;13.664;2023-05-14T10:12:47;96856.84;;;19.20;53.04
25130;BME280;13308;50.860;13.664;2023-05-14T10:15:19;96854.16;;;19.02;54.33
25130;BME280;13308;50.860;13.664;2023-05-14T10:17:50;96852.97;;;19.27;54.93
25130;BME280;13308;50.860;13.664;2023-05-14T10:20:18;96859.22;;;19.45;54.90
25130;BME280;13308;50.860;13.664;2023-05-14T10:22:45;96864.44;;;19.99;50.70
25130;BME280;13308;50.860;13.664;2023-05-14T10:25:10;96849.38;;;19.96;54.09
25130;BME280;13308;50.860;13.664;2023-05-14T10:27:36;96839.81;;;20.26;56.77
25130;BME280;13308;50.860;13.664;2023-05-14T10:30:05;96843.94;;;19.93;53.09
25130;BME280;13308;50.860;13.664;2023-05-14T10:32:34;96849.69;;;19.75;52.10
25130;BME280;13308;50.860;13.664;2023-05-14T10:35:14;96838.34;;;19.55;54.54
25130;BME280;13308;50.860;13.664;2023-05-14T10:37:40;96840.94;;;19.58;57.62
25130;BME280;13308;50.860;13.664;2023-05-14T10:40:05;96837.19;;;19.38;52.16
25130;BME280;13308;50.860;13.664;2023-05-14T10:42:33;96834.75;;;18.98;54.36
25130;BME280;13308;50.860;13.664;2023-05-14T10:45:02;96832.47;;;18.88;54.90
25130;BME280;13308;50.860;13.664;2023-05-14T10:47:32;96820.63;;;18.61;54.61
25130;BME280;13308;50.860;13.664;2023-05-14T10:50:00;96821.41;;;18.61;53.76
25130;BME280;13308;50.860;13.664;2023-05-14T10:52:26;96814.34;;;18.84;54.73
25130;BME280;13308;50.860;13.664;2023-05-14T10:54:56;96817.53;;;18.91;56.57
25130;BME280;13308;50.860;13.664;2023-05-14T10:57:24;96813.34;;;18.54;56.07
25130;BME280;13308;50.860;13.664;2023-05-14T10:59:55;96818.06;;;19.22;53.10
25130;BME280;13308;50.860;13.664;2023-05-14T11:02:31;96816.81;;;19.14;56.64
25130;BME280;13308;50.860;13.664;2023-05-14T11:04:59;96815.59;;;19.62;57.84
25130;BME280;13308;50.860;13.664;2023-05-14T11:07:29;96806.00;;;19.54;58.06
25130;BME280;13308;50.860;13.664;2023-05-14T11:09:59;96809.75;;;19.74;57.75
25130;BME280;13308;50.860;13.664;2023-05-14T11:12:26;96806.25;;;20.17;53.52
25130;BME280;13308;50.860;13.664;2023-05-14T11:14:52;96805.69;;;20.28;55.30
25130;BME280;13308;50.860;13.664;2023-05-14T11:17:17;96801.72;;;20.20;55.42
25130;BME280;13308;50.860;13.664;2023-05-14T11:19:43;96786.47;;;20.21;55.00
25130;BME280;13308;50.860;13.664;2023-05-14T11:22:10;96789.00;;;20.19;54.69
25130;BME280;13308;50.860;13.664;2023-05-14T11:24:38;96800.19;;;20.19;57.43
25130;BME280;13308;50.860;13.664;2023-05-14T11:27:03;96787.38;;;19.89;55.85
25130;BME280;13308;50.860;13.664;2023-05-14T11:29:29;96776.66;;;19.87;57.69
25130;BME280;13308;50.860;13.664;2023-05-14T11:31:54;96789.69;;;19.76;57.36
25130;BME280;13308;50.860;13.664;2023-05-14T11:34:20;96787.47;;;19.94;53.45
25130;BME280;13308;50.860;13.664;2023-05-14T11:36:45;96783.69;;;19.83;56.87
25130;BME280;13308;50.860;13.664;2023-05-14T11:39:17;96789.69;;;20.05;56.41
25130;BME280;13308;50.860;13.664;2023-05-14T11:41:43;96782.97;;;20.11;55.09
25130;BME280;13308;50.860;13.664;2023-05-14T11:44:10;96772.91;;;20.63;55.89
25130;BME280;13308;50.860;13.664;2023-05-14T11:46:35;96774.47;;;20.35;53.18
25130;BME280;13308;50.860;13.664;2023-05-14T11:49:03;96773.72;;;20.49;53.07
25130;BME280;13308;50.860;13.664;2023-05-14T11:51:28;96768.88;;;20.35;53.41
25130;BME280;13308;50.860;13.664;2023-05-14T11:53:54;96762.50;;;20.20;56.71
25130;BME280;13308;50.860;13.664;2023-05-14T11:56:20;96761.69;;;20.05;53.87
25130;BME280;13308;50.860;13.664;2023-05-14T11:58:47;96757.38;;;20.47;51.88
25130;BME280;13308;50.860;13.664;2023-05-14T12:01:14;96769.44;;;20.53;54.69
25130;BME280;13308;50.860;13.664;2023-05-14T12:03:40;96765.75;;;20.91;52.94
25130;BME280;13308;50.860;13.664;2023-05-14T12:06:05;96766.19;;;21.24;51.68
25130;BME280;13308;50.860;13.664;2023-05-14T12:08:32;96755.03;;;21.09;52.20
25130;BME280;13308;50.860;13.664;2023-05-14T12:10:59;96757.78;;;21.44;51.99
25130;BME280;13308;50.860;13.664;2023-05-14T12:13:31;96750.50;;;22.23;51.14
25130;BME280;13308;50.860;13.664;2023-05-14T12:15:58;96747.03;;;22.95;51.86
25130;BME280;13308;50.860;13.664;2023-05-14T12:18:26;96739.72;;;23.62;51.30
25130;BME280;13308;50.860;13.664;2023-05-14T12:20:52;96741.75;;;23.08;48.71
25130;BME280;13308;50.860;13.664;2023-05-14T12:23:28;96740.84;;;22.55;49.73
25130;BME280;13308;50.860;13.664;2023-05-14T12:25:54;96742.31;;;21.94;49.02
25130;BME280;13308;50.860;13.664;2023-05-14T12:28:22;96734.75;;;21.60;52.14
25130;BME280;13308;50.860;13.664;2023-05-14T12:30:47;96741.06;;;21.35;51.43
25130;BME280;13308;50.860;13.664;2023-05-14T12:33:13;96741.56;;;21.13;51.68
25130;BME280;13308;50.860;13.664;2023-05-14T12:35:39;96744.66;;;20.81;49.84
25130;BME280;13308;50.860;13.664;2023-05-14T12:38:05;96732.56;;;20.26;53.00
25130;BME280;13308;50.860;13.664;2023-05-14T12:40:30;96721.94;;;20.30;54.70
25130;BME280;13308;50.860;13.664;2023-05-14T12:42:55;96723.09;;;20.09;54.55
25130;BME280;13308;50.860;13.664;2023-05-14T12:45:21;96728.19;;;19.96;57.01
25130;BME280;13308;50.860;13.664;2023-05-14T12:47:46;96727.72;;;19.83;57.24
25130;BME280;13308;50.860;13.664;2023-05-14T12:50:11;96720.16;;;19.60;56.07
25130;BME280;13308;50.860;13.664;2023-05-14T12:52:37;96713.16;;;19.41;57.59
25130;BME280;13308;50.860;13.664;2023-05-14T12:55:02;96724.34;;;19.41;55.58
25130;BME280;13308;50.860;13.664;2023-05-14T12:57:28;96719.16;;;19.48;57.28
25130;BME280;13308;50.860;13.664;2023-05-14T12:59:54;96712.78;;;19.48;56.01
25130;BME280;13308;50.860;13.664;2023-05-14T13:02:19;96713.13;;;19.93;54.35
25130;BME280;13308;50.860;13.664;2023-05-14T13:04:46;96717.47;;;19.80;53.50
25130;BME280;13308;50.860;13.664;2023-05-14T13:07:11;96704.13;;;19.75;53.85
25130;BME280;13308;50.860;13.664;2023-05-14T13:09:36;96718.63;;;19.59;55.35
25130;BME280;13308;50.860;13.664;2023-05-14T13:12:02;96711.25;;;19.47;56.09
25130;BME280;13308;50.860;13.664;2023-05-14T13:14:27;96718.91;;;19.23;56.26
25130;BME280;13308;50.860;13.664;2023-05-14T13:16:53;96713.31;;;19.23;57.55
25130;BME280;13308;50.860;13.664;2023-05-14T13:19:18;96707.41;;;19.21;56.39
25130;BME280;13308;50.860;13.664;2023-05-14T13:21:43;96704.28;;;19.19;59.25
25130;BME280;13308;50.860;13.664;2023-05-14T13:24:09;96705.16;;;19.34;55.77
25130;BME280;13308;50.860;13.664;2023-05-14T13:26:35;96712.94;;;19.30;57.13
25130;BME280;13308;50.860;13.664;2023-05-14T13:29:01;96706.00;;;19.26;56.08
25130;BME280;13308;50.860;13.664;2023-05-14T13:31:26;96706.84;;;19.08;55.28
25130;BME280;13308;50.860;13.664;2023-05-14T13:33:51;96708.75;;;19.02;56.49
25130;BME280;13308;50.860;13.664;2023-05-14T13:36:17;96704.00;;;18.70;58.04
25130;BME280;13308;50.860;13.664;2023-05-14T13:38:42;96702.59;;;18.42;57.07
25130;BME280;13308;50.860;13.664;2023-05-14T13:41:10;96704.53;;;18.60;55.64
25130;BME280;13308;50.860;13.664;2023-05-14T13:43:35;96700.16;;;18.68;55.83
25130;BME280;13308;50.860;13.664;2023-05-14T13:46:02;96697.75;;;18.52;61.62
25130;BME280;13308;50.860;13.664;2023-05-14T13:48:27;96699.72;;;18.60;57.48
25130;BME280;13308;50.860;13.664;2023-05-14T13:50:53;96690.69;;;18.65;57.55
25130;BME280;13308;50.860;13.664;2023-05-14T13:53:20;96682.97;;;18.84;58.09
25130;BME280;13308;50.860;13.664;2023-05-14T13:55:45;96693.19;;;19.33;55.41
25130;BME280;13308;50.860;13.664;2023-05-14T13:58:11;96693.16;;;20.29;55.10
25130;BME280;13308;50.860;13.664;2023-05-14T14:00:36;96692.34;;;20.43;57.24
25130;BME280;13308;50.860;13.664;2023-05-14T14:03:02;96691.34;;;20.61;56.00
25130;BME280;13308;50.860;13.664;2023-05-14T14:05:27;96703.81;;;21.54;52.59
25130;BME280;13308;50.860;13.664;2023-05-14T14:07:54;96701.88;;;21.40;51.85
25130;BME280;13308;50.860;13.664;2023-05-14T14:10:20;96699.34;;;21.02;54.41
25130;BME280;13308;50.860;13.664;2023-05-14T14:12:45;96692.94;;;21.62;54.68
25130;BME280;13308;50.860;13.664;2023-05-14T14:15:11;96697.38;;;21.48;54.60
25130;BME280;13308;50.860;13.664;2023-05-14T14:17:36;96704.59;;;21.75;51.55
25130;BME280;13308;50.860;13.664;2023-05-14T14:20:04;96697.38;;;21.48;49.84
25130;BME280;13308;50.860;13.664;2023-05-14T14:22:30;96693.88;;;20.93;51.32
25130;BME280;13308;50.860;13.664;2023-05-14T14:24:55;96685.25;;;20.13;53.05
25130;BME280;13308;50.860;13.664;2023-05-14T14:27:21;96669.78;;;19.74;54.47
25130;BME280;13308;50.860;13.664;2023-05-14T14:29:46;96683.09;;;19.65;54.48
25130;BME280;13308;50.860;13.664;2023-05-14T14:32:11;96678.75;;;19.78;54.71
25130;BME280;13308;50.860;13.664;2023-05-14T14:34:37;96670.94;;;19.82;55.89
25130;BME280;13308;50.860;13.664;2023-05-14T14:37:02;96663.03;;;19.52;55.63
25130;BME280;13308;50.860;13.664;2023-05-14T14:39:27;96669.41;;;19.81;58.24
25130;BME280;13308;50.860;13.664;2023-05-14T14:41:53;96671.34;;;19.90;58.05
25130;BME280;13308;50.860;13.664;2023-05-14T14:44:19;96659.75;;;19.68;56.56
25130;BME280;13308;50.860;13.664;2023-05-14T14:46:46;96660.13;;;19.75;57.48
25130;BME280;13308;50.860;13.664;2023-05-14T14:49:11;96664.47;;;19.62;59.29
25130;BME280;13308;50.860;13.664;2023-05-14T14:51:37;96658.38;;;19.63;60.37
25130;BME280;13308;50.860;13.664;2023-05-14T14:54:02;96668.03;;;19.62;61.72
25130;BME280;13308;50.860;13.664;2023-05-14T14:56:29;96661.09;;;19.58;56.78
25130;BME280;13308;50.860;13.664;2023-05-14T14:58:54;96660.59;;;19.07;56.49
25130;BME280;13308;50.860;13.664;2023-05-14T15:01:20;96650.28;;;18.75;56.93
25130;BME280;13308;50.860;13.664;2023-05-14T15:03:46;96653.09;;;18.66;57.66
25130;BME280;13308;50.860;13.664;2023-05-14T15:06:12;96659.41;;;18.52;54.10
25130;BME280;13308;50.860;13.664;2023-05-14T15:08:37;96655.34;;;18.21;56.49
25130;BME280;13308;50.860;13.664;2023-05-14T15:11:03;96653.28;;;18.39;53.86
25130;BME280;13308;50.860;13.664;2023-05-14T15:13:30;96661.06;;;18.35;53.39
25130;BME280;13308;50.860;13.664;2023-05-14T15:15:55;96653.09;;;18.01;54.16
25130;BME280;13308;50.860;13.664;2023-05-14T15:18:20;96657.59;;;18.08;56.53
25130;BME280;13308;50.860;13.664;2023-05-14T15:20:46;96655.78;;;18.28;55.33
25130;BME280;13308;50.860;13.664;2023-05-14T15:23:11;96656.78;;;18.16;57.46
25130;BME280;13308;50.860;13.664;2023-05-14T15:25:36;96658.44;;;18.23;57.24
25130;BME280;13308;50.860;13.664;2023-05-14T15:28:03;96645.91;;;18.18;57.37
25130;BME280;13308;50.860;13.664;2023-05-14T15:30:29;96646.97;;;18.21;58.50
25130;BME280;13308;50.860;13.664;2023-05-14T15:32:54;96648.41;;;18.07;61.08
25130;BME280;13308;50.860;13.664;2023-05-14T15:35:20;96644.00;;;17.92;62.95
25130;BME280;13308;50.860;13.664;2023-05-14T15:37:45;96640.56;;;17.97;65.20
25130;BME280;13308;50.860;13.664;2023-05-14T15:40:11;96641.28;;;18.06;61.02
25130;BME280;13308;50.860;13.664;2023-05-14T15:42:38;96642.09;;;17.98;61.17
25130;BME280;13308;50.860;13.664;2023-05-14T15:45:04;96629.84;;;18.04;60.57
25130;BME280;13308;50.860;13.664;2023-05-14T15:47:30;96630.78;;;18.01;62.77
25130;BME280;13308;50.860;13.664;2023-05-14T15:49:57;96628.31;;;18.03;62.46
25130;BME280;13308;50.860;13.664;2023-05-14T15:52:22;96620.56;;;17.98;67.28
25130;BME280;13308;50.860;13.664;2023-05-14T15:54:48;96629.84;;;18.04;63.81
25130;BME280;13308;50.860;13.664;2023-05-14T15:57:13;96620.88;;;18.24;60.63
25130;BME280;13308;50.860;13.664;2023-05-14T15:59:39;96614.00;;;18.10;63.20
25130;BME280;13308;50.860;13.664;2023-05-14T16:02:05;96611.72;;;18.32;61.55
25130;BME280;13308;50.860;13.664;2023-05-14T16:04:31;96603.56;;;18.20;63.05
25130;BME280;13308;50.860;13.664;2023-05-14T16:07:01;96609.34;;;18.07;65.26
25130;BME280;13308;50.860;13.664;2023-05-14T16:09:26;96604.09;;;18.09;69.14
25130;BME280;13308;50.860;13.664;2023-05-14T16:11:52;96613.66;;;18.17;64.98
25130;BME280;13308;50.860;13.664;2023-05-14T16:14:17;96608.88;;;18.09;65.69
25130;BME280;13308;50.860;13.664;2023-05-14T16:16:43;96614.03;;;18.01;66.63
25130;BME280;13308;50.860;13.664;2023-05-14T16:19:08;96615.63;;;17.93;67.72
25130;BME280;13308;50.860;13.664;2023-05-14T16:21:33;96610.75;;;17.70;69.27
25130;BME280;13308;50.860;13.664;2023-05-14T16:23:59;96614.38;;;17.85;65.32
25130;BME280;13308;50.860;13.664;2023-05-14T16:26:24;96622.25;;;17.63;68.52
25130;BME280;13308;50.860;13.664;2023-05-14T16:28:50;96612.63;;;17.64;68.56
25130;BME280;13308;50.860;13.664;2023-05-14T16:31:16;96616.94;;;17.74;63.57
25130;BME280;13308;50.860;13.664;2023-05-14T16:33:41;96611.84;;;17.64;64.44
25130;BME280;13308;50.860;13.664;2023-05-14T16:36:06;96610.91;;;17.58;64.29
25130;BME280;13308;50.860;13.664;2023-05-14T16:38:32;96616.03;;;17.59;64.29
25130;BME280;13308;50.860;13.664;2023-05-14T16:40:57;96617.16;;;17.53;65.16
25130;BME280;13308;50.860;13.664;2023-05-14T16:43:23;96608.97;;;17.40;66.79
25130;BME280;13308;50.860;13.664;2023-05-14T16:45:48;96614.66;;;17.46;68.41
25130;BME280;13308;50.860;13.664;2023-05-14T16:48:13;96608.00;;;17.52;64.83
25130;BME280;13308;50.860;13.664;2023-05-14T16:50:38;96613.25;;;17.59;68.04
25130;BME280;13308;50.860;13.664;2023-05-14T16:53:04;96610.88;;;18.08;64.48
25130;BME280;13308;50.860;13.664;2023-05-14T16:55:29;96605.00;;;18.62;62.48
25130;BME280;13308;50.860;13.664;2023-05-14T16:57:55;96614.00;;;18.90;60.45
25130;BME280;13308;50.860;13.664;2023-05-14T17:00:20;96618.22;;;19.23;62.06
25130;BME280;13308;50.860;13.664;2023-05-14T17:02:45;96602.13;;;18.94;61.75
25130;BME280;13308;50.860;13.664;2023-05-14T17:05:14;96606.97;;;18.94;67.17